sensor_id;sensor_type;location;lat;lon;timestamp;P1;durP1;ratioP1;P2;durP2;ratioP2
79570;SDS011;69034;49.444;7.758;2023-08-24T00:02:50;4.55;;;2.45;;
79570;SDS011;69034;49.444;7.758;2023-08-24T00:06:52;4.30;;;2.72;;
79570;SDS011;69034;49.444;7.758;2023-08-24T00:10:53;4.40;;;2.70;;
79570;SDS011;69034;49.444;7.758;2023-08-24T00:14:54;5.68;;;2.65;;
79570;SDS011;69034;49.444;7.758;2023-08-24T00:18:55;5.68;;;2.88;;
79570;SDS011;69034;49.444;7.758;2023-08-24T00:22:56;4.63;;;2.35;;
79570;SDS011;69034;49.444;7.758;2023-08-24T00:26:56;3.75;;;2.17;;
79570;SDS011;69034;49.444;7.758;2023-08-24T00:30:57;4.43;;;2.45;;
79570;SDS011;69034;49.444;7.758;2023-08-24T00:34:58;4.00;;;2.33;;
79570;SDS011;69034;49.444;7.758;2023-08-24T00:38:59;4.20;;;2.58;;
79570;SDS011;69034;49.444;7.758;2023-08-24T00:42:59;5.30;;;2.28;;
79570;SDS011;69034;49.444;7.758;2023-08-24T00:47:00;6.15;;;2.65;;
79570;SDS011;69034;49.444;7.758;2023-08-24T00:51:01;4.60;;;2.33;;
79570;SDS011;69034;49.444;7.758;2023-08-24T00:55:03;5.70;;;2.58;;
79570;SDS011;69034;49.444;7.758;2023-08-24T00:59:04;7.20;;;3.20;;
79570;SDS011;69034;49.444;7.758;2023-08-24T01:03:05;6.63;;;2.70;;
79570;SDS011;69034;49.444;7.758;2023-08-24T01:07:06;6.97;;;2.58;;
79570;SDS011;69034;49.444;7.758;2023-08-24T01:19:43;4.85;;;2.55;;
79570;SDS011;69034;49.444;7.758;2023-08-24T01:23:48;4.90;;;2.53;;
79570;SDS011;69034;49.444;7.758;2023-08-24T01:27:57;5.25;;;2.30;;
79570;SDS011;69034;49.444;7.758;2023-08-24T01:32:00;4.20;;;2.13;;
79570;SDS011;69034;49.444;7.758;2023-08-24T01:36:00;4.55;;;2.70;;
79570;SDS011;69034;49.444;7.758;2023-08-24T01:40:13;6.15;;;2.50;;
79570;SDS011;69034;49.444;7.758;2023-08-24T01:44:20;5.65;;;2.30;;
79570;SDS011;69034;49.444;7.758;2023-08-24T01:48:24;4.53;;;2.40;;
79570;SDS011;69034;49.444;7.758;2023-08-24T01:52:25;4.50;;;2.35;;
79570;SDS011;69034;49.444;7.758;2023-08-24T01:56:27;5.88;;;2.75;;
79570;SDS011;69034;49.444;7.758;2023-08-24T02:00:27;4.88;;;2.60;;
79570;SDS011;69034;49.444;7.758;2023-08-24T02:04:28;5.10;;;2.70;;
79570;SDS011;69034;49.444;7.758;2023-08-24T02:08:29;4.47;;;2.40;;
79570;SDS011;69034;49.444;7.758;2023-08-24T02:12:29;6.57;;;2.83;;
79570;SDS011;69034;49.444;7.758;2023-08-24T02:16:30;4.53;;;2.60;;
79570;SDS011;69034;49.444;7.758;2023-08-24T02:20:34;5.18;;;2.65;;
79570;SDS011;69034;49.444;7.758;2023-08-24T02:24:38;6.07;;;2.58;;
79570;SDS011;69034;49.444;7.758;2023-08-24T02:28:39;5.57;;;2.60;;
79570;SDS011;69034;49.444;7.758;2023-08-24T02:32:40;4.43;;;2.60;;
79570;SDS011;69034;49.444;7.758;2023-08-24T02:36:41;6.22;;;2.60;;
79570;SDS011;69034;49.444;7.758;2023-08-24T02:40:42;3.80;;;2.25;;
79570;SDS011;69034;49.444;7.758;2023-08-24T02:44:43;5.22;;;2.80;;
79570;SDS011;69034;49.444;7.758;2023-08-24T02:48:44;4.78;;;2.30;;
79570;SDS011;69034;49.444;7.758;2023-08-24T02:52:45;4.93;;;2.58;;
79570;SDS011;69034;49.444;7.758;2023-08-24T02:56:46;4.22;;;2.40;;
79570;SDS011;69034;49.444;7.758;2023-08-24T03:00:47;4.60;;;2.40;;
79570;SDS011;69034;49.444;7.758;2023-08-24T03:04:48;5.90;;;2.88;;
79570;SDS011;69034;49.444;7.758;2023-08-24T03:08:48;5.10;;;2.70;;
79570;SDS011;69034;49.444;7.758;2023-08-24T03:12:49;6.13;;;3.10;;
79570;SDS011;69034;49.444;7.758;2023-08-24T03:16:51;7.82;;;2.75;;
79570;SDS011;69034;49.444;7.758;2023-08-24T03:20:51;6.75;;;2.70;;
79570;SDS011;69034;49.444;7.758;2023-08-24T03:24:52;6.15;;;2.40;;
79570;SDS011;69034;49.444;7.758;2023-08-24T03:28:53;3.85;;;2.30;;
79570;SDS011;69034;49.444;7.758;2023-08-24T03:32:53;5.32;;;2.42;;
79570;SDS011;69034;49.444;7.758;2023-08-24T03:36:54;6.57;;;2.72;;
79570;SDS011;69034;49.444;7.758;2023-08-24T03:41:01;7.25;;;2.65;;
79570;SDS011;69034;49.444;7.758;2023-08-24T03:45:03;4.72;;;2.50;;
79570;SDS011;69034;49.444;7.758;2023-08-24T03:49:04;4.63;;;2.40;;
79570;SDS011;69034;49.444;7.758;2023-08-24T03:53:09;4.80;;;2.30;;
79570;SDS011;69034;49.444;7.758;2023-08-24T03:57:10;7.63;;;2.78;;
79570;SDS011;69034;49.444;7.758;2023-08-24T04:01:11;5.53;;;2.38;;
79570;SDS011;69034;49.444;7.758;2023-08-24T04:05:12;5.55;;;2.70;;
79570;SDS011;69034;49.444;7.758;2023-08-24T04:09:12;7.00;;;2.45;;
79570;SDS011;69034;49.444;7.758;2023-08-24T04:13:13;4.72;;;2.35;;
79570;SDS011;69034;49.444;7.758;2023-08-24T04:17:14;5.03;;;2.55;;
79570;SDS011;69034;49.444;7.758;2023-08-24T04:21:15;5.22;;;2.72;;
79570;SDS011;69034;49.444;7.758;2023-08-24T04:25:17;4.20;;;2.35;;
79570;SDS011;69034;49.444;7.758;2023-08-24T04:29:17;5.95;;;2.72;;
79570;SDS011;69034;49.444;7.758;2023-08-24T04:33:18;5.13;;;2.28;;
79570;SDS011;69034;49.444;7.758;2023-08-24T04:37:19;4.00;;;2.00;;
79570;SDS011;69034;49.444;7.758;2023-08-24T04:41:20;4.90;;;2.10;;
79570;SDS011;69034;49.444;7.758;2023-08-24T04:45:20;5.53;;;2.88;;
79570;SDS011;69034;49.444;7.758;2023-08-24T04:49:21;8.50;;;2.50;;
79570;SDS011;69034;49.444;7.758;2023-08-24T04:53:22;5.43;;;2.58;;
79570;SDS011;69034;49.444;7.758;2023-08-24T04:57:22;4.28;;;2.60;;
79570;SDS011;69034;49.444;7.758;2023-08-24T05:01:23;5.10;;;2.28;;
79570;SDS011;69034;49.444;7.758;2023-08-24T05:05:28;5.18;;;2.50;;
79570;SDS011;69034;49.444;7.758;2023-08-24T05:09:30;4.22;;;2.38;;
79570;SDS011;69034;49.444;7.758;2023-08-24T05:13:30;6.68;;;2.50;;
79570;SDS011;69034;49.444;7.758;2023-08-24T05:17:31;4.88;;;2.38;;
79570;SDS011;69034;49.444;7.758;2023-08-24T05:21:32;6.18;;;2.25;;
79570;SDS011;69034;49.444;7.758;2023-08-24T05:25:33;4.43;;;2.22;;
79570;SDS011;69034;49.444;7.758;2023-08-24T05:29:35;4.53;;;1.95;;
79570;SDS011;69034;49.444;7.758;2023-08-24T05:33:36;14.65;;;2.75;;
79570;SDS011;69034;49.444;7.758;2023-08-24T05:37:37;5.80;;;2.30;;
79570;SDS011;69034;49.444;7.758;2023-08-24T05:41:38;5.07;;;2.28;;
79570;SDS011;69034;49.444;7.758;2023-08-24T05:45:39;4.93;;;2.25;;
79570;SDS011;69034;49.444;7.758;2023-08-24T05:49:40;12.52;;;3.42;;
79570;SDS011;69034;49.444;7.758;2023-08-24T05:53:42;4.75;;;2.42;;
79570;SDS011;69034;49.444;7.758;2023-08-24T05:57:43;6.60;;;3.05;;
79570;SDS011;69034;49.444;7.758;2023-08-24T06:01:43;6.28;;;2.97;;
79570;SDS011;69034;49.444;7.758;2023-08-24T06:05:45;5.20;;;2.50;;
79570;SDS011;69034;49.444;7.758;2023-08-24T06:09:46;7.18;;;2.42;;
79570;SDS011;69034;49.444;7.758;2023-08-24T06:13:47;4.65;;;2.33;;
79570;SDS011;69034;49.444;7.758;2023-08-24T06:17:47;6.22;;;2.70;;
79570;SDS011;69034;49.444;7.758;2023-08-24T06:21:48;4.75;;;2.58;;
79570;SDS011;69034;49.444;7.758;2023-08-24T06:25:49;5.05;;;2.97;;
79570;SDS011;69034;49.444;7.758;2023-08-24T06:29:50;5.40;;;2.50;;
79570;SDS011;69034;49.444;7.758;2023-08-24T06:33:50;6.13;;;2.42;;
79570;SDS011;69034;49.444;7.758;2023-08-24T06:37:51;6.20;;;2.40;;
79570;SDS011;69034;49.444;7.758;2023-08-24T06:41:52;4.40;;;2.28;;
79570;SDS011;69034;49.444;7.758;2023-08-24T06:45:54;4.47;;;2.33;;
79570;SDS011;69034;49.444;7.758;2023-08-24T06:49:55;8.50;;;2.30;;
79570;SDS011;69034;49.444;7.758;2023-08-24T06:53:55;6.32;;;2.75;;
79570;SDS011;69034;49.444;7.758;2023-08-24T06:57:57;4.93;;;2.45;;
79570;SDS011;69034;49.444;7.758;2023-08-24T07:02:10;5.82;;;2.40;;
79570;SDS011;69034;49.444;7.758;2023-08-24T07:06:10;6.25;;;2.92;;
79570;SDS011;69034;49.444;7.758;2023-08-24T07:10:13;6.72;;;2.50;;
79570;SDS011;69034;49.444;7.758;2023-08-24T07:14:14;10.13;;;2.35;;
79570;SDS011;69034;49.444;7.758;2023-08-24T07:18:15;6.22;;;2.70;;
79570;SDS011;69034;49.444;7.758;2023-08-24T07:22:16;4.28;;;2.25;;
79570;SDS011;69034;49.444;7.758;2023-08-24T07:26:17;5.72;;;2.20;;
79570;SDS011;69034;49.444;7.758;2023-08-24T07:30:18;5.07;;;2.47;;
79570;SDS011;69034;49.444;7.758;2023-08-24T07:34:18;6.57;;;2.30;;
79570;SDS011;69034;49.444;7.758;2023-08-24T07:38:19;4.00;;;2.10;;
79570;SDS011;69034;49.444;7.758;2023-08-24T07:42:20;4.28;;;2.28;;
79570;SDS011;69034;49.444;7.758;2023-08-24T07:46:21;5.13;;;2.35;;
79570;SDS011;69034;49.444;7.758;2023-08-24T07:50:22;3.83;;;1.92;;
79570;SDS011;69034;49.444;7.758;2023-08-24T07:54:22;5.43;;;2.70;;
79570;SDS011;69034;49.444;7.758;2023-08-24T07:58:24;6.85;;;2.50;;
79570;SDS011;69034;49.444;7.758;2023-08-24T08:02:25;7.75;;;2.65;;
79570;SDS011;69034;49.444;7.758;2023-08-24T08:06:25;5.15;;;2.30;;
79570;SDS011;69034;49.444;7.758;2023-08-24T08:10:29;7.72;;;2.65;;
79570;SDS011;69034;49.444;7.758;2023-08-24T08:14:29;5.72;;;2.53;;
79570;SDS011;69034;49.444;7.758;2023-08-24T08:18:34;6.82;;;2.88;;
79570;SDS011;69034;49.444;7.758;2023-08-24T08:22:36;6.55;;;2.78;;
79570;SDS011;69034;49.444;7.758;2023-08-24T08:26:38;5.10;;;2.50;;
79570;SDS011;69034;49.444;7.758;2023-08-24T08:30:39;4.22;;;2.00;;
79570;SDS011;69034;49.444;7.758;2023-08-24T08:34:40;7.63;;;2.60;;
79570;SDS011;69034;49.444;7.758;2023-08-24T08:38:40;6.18;;;2.78;;
79570;SDS011;69034;49.444;7.758;2023-08-24T08:42:41;5.07;;;2.60;;
79570;SDS011;69034;49.444;7.758;2023-08-24T08:46:43;4.30;;;2.40;;
79570;SDS011;69034;49.444;7.758;2023-08-24T08:50:44;4.60;;;2.42;;
79570;SDS011;69034;49.444;7.758;2023-08-24T08:54:45;4.32;;;2.30;;
79570;SDS011;69034;49.444;7.758;2023-08-24T08:58:46;6.78;;;2.35;;
79570;SDS011;69034;49.444;7.758;2023-08-24T09:02:48;6.85;;;2.45;;
79570;SDS011;69034;49.444;7.758;2023-08-24T09:06:51;6.50;;;2.58;;
79570;SDS011;69034;49.444;7.758;2023-08-24T09:10:52;6.95;;;2.30;;
79570;SDS011;69034;49.444;7.758;2023-08-24T09:14:54;7.75;;;2.20;;
79570;SDS011;69034;49.444;7.758;2023-08-24T09:18:55;4.95;;;2.30;;
79570;SDS011;69034;49.444;7.758;2023-08-24T09:22:56;5.18;;;2.65;;
79570;SDS011;69034;49.444;7.758;2023-08-24T09:26:57;4.60;;;2.33;;
79570;SDS011;69034;49.444;7.758;2023-08-24T09:30:59;4.45;;;2.10;;
79570;SDS011;69034;49.444;7.758;2023-08-24T09:35:08;4.32;;;2.08;;
79570;SDS011;69034;49.444;7.758;2023-08-24T09:39:09;6.80;;;2.47;;
79570;SDS011;69034;49.444;7.758;2023-08-24T09:43:12;4.18;;;1.95;;
79570;SDS011;69034;49.444;7.758;2023-08-24T09:47:12;6.03;;;2.17;;
79570;SDS011;69034;49.444;7.758;2023-08-24T09:51:13;3.78;;;2.00;;
79570;SDS011;69034;49.444;7.758;2023-08-24T09:55:15;4.00;;;1.88;;
79570;SDS011;69034;49.444;7.758;2023-08-24T09:59:22;3.63;;;1.90;;
79570;SDS011;69034;49.444;7.758;2023-08-24T10:03:25;5.10;;;2.10;;
79570;SDS011;69034;49.444;7.758;2023-08-24T10:07:26;6.93;;;2.13;;
79570;SDS011;69034;49.444;7.758;2023-08-24T10:11:28;5.03;;;2.20;;
79570;SDS011;69034;49.444;7.758;2023-08-24T10:15:31;5.47;;;2.20;;
79570;SDS011;69034;49.444;7.758;2023-08-24T10:19:32;4.57;;;2.08;;
79570;SDS011;69034;49.444;7.758;2023-08-24T10:23:36;4.43;;;2.03;;
79570;SDS011;69034;49.444;7.758;2023-08-24T10:27:41;4.85;;;2.15;;
79570;SDS011;69034;49.444;7.758;2023-08-24T10:31:44;3.40;;;1.90;;
79570;SDS011;69034;49.444;7.758;2023-08-24T10:35:45;3.72;;;2.03;;
79570;SDS011;69034;49.444;7.758;2023-08-24T10:39:47;4.78;;;2.25;;
79570;SDS011;69034;49.444;7.758;2023-08-24T10:43:48;5.10;;;2.05;;
79570;SDS011;69034;49.444;7.758;2023-08-24T10:47:51;3.90;;;2.67;;
79570;SDS011;69034;49.444;7.758;2023-08-24T10:51:53;7.05;;;2.30;;
79570;SDS011;69034;49.444;7.758;2023-08-24T10:56:09;6.30;;;2.30;;
79570;SDS011;69034;49.444;7.758;2023-08-24T11:00:12;5.07;;;2.30;;
79570;SDS011;69034;49.444;7.758;2023-08-24T11:04:12;7.95;;;2.63;;
79570;SDS011;69034;49.444;7.758;2023-08-24T11:08:13;7.32;;;2.70;;
79570;SDS011;69034;49.444;7.758;2023-08-24T11:12:14;10.63;;;3.03;;
79570;SDS011;69034;49.444;7.758;2023-08-24T11:16:37;10.98;;;3.00;;
79570;SDS011;69034;49.444;7.758;2023-08-24T11:20:41;5.78;;;3.17;;
79570;SDS011;69034;49.444;7.758;2023-08-24T11:24:44;10.73;;;2.53;;
79570;SDS011;69034;49.444;7.758;2023-08-24T11:28:45;5.47;;;2.50;;
79570;SDS011;69034;49.444;7.758;2023-08-24T11:32:51;5.20;;;2.03;;
79570;SDS011;69034;49.444;7.758;2023-08-24T11:36:53;5.30;;;2.67;;
79570;SDS011;69034;49.444;7.758;2023-08-24T11:40:54;5.18;;;2.45;;
79570;SDS011;69034;49.444;7.758;2023-08-24T11:44:54;5.57;;;2.17;;
79570;SDS011;69034;49.444;7.758;2023-08-24T11:48:56;5.93;;;3.08;;
79570;SDS011;69034;49.444;7.758;2023-08-24T11:52:59;5.47;;;2.50;;
79570;SDS011;69034;49.444;7.758;2023-08-24T11:57:05;6.97;;;2.70;;
79570;SDS011;69034;49.444;7.758;2023-08-24T12:01:07;4.47;;;2.25;;
79570;SDS011;69034;49.444;7.758;2023-08-24T12:05:19;5.45;;;2.97;;
79570;SDS011;69034;49.444;7.758;2023-08-24T12:09:28;4.30;;;2.70;;
79570;SDS011;69034;49.444;7.758;2023-08-24T12:13:32;4.72;;;2.55;;
79570;SDS011;69034;49.444;7.758;2023-08-24T12:17:43;5.50;;;3.05;;
79570;SDS011;69034;49.444;7.758;2023-08-24T12:21:44;6.28;;;3.40;;
79570;SDS011;69034;49.444;7.758;2023-08-24T12:25:45;6.60;;;3.22;;
79570;SDS011;69034;49.444;7.758;2023-08-24T12:29:53;7.68;;;2.53;;
79570;SDS011;69034;49.444;7.758;2023-08-24T12:34:04;5.47;;;3.00;;
79570;SDS011;69034;49.444;7.758;2023-08-24T12:38:05;6.07;;;2.88;;
79570;SDS011;69034;49.444;7.758;2023-08-24T12:42:06;5.47;;;3.00;;
79570;SDS011;69034;49.444;7.758;2023-08-24T12:46:07;6.18;;;3.00;;
79570;SDS011;69034;49.444;7.758;2023-08-24T12:50:08;5.60;;;3.08;;
79570;SDS011;69034;49.444;7.758;2023-08-24T12:54:08;5.20;;;2.78;;
79570;SDS011;69034;49.444;7.758;2023-08-24T12:58:09;7.45;;;3.13;;
79570;SDS011;69034;49.444;7.758;2023-08-24T13:02:11;12.20;;;3.15;;
79570;SDS011;69034;49.444;7.758;2023-08-24T13:06:12;4.13;;;2.78;;
79570;SDS011;69034;49.444;7.758;2023-08-24T13:10:12;7.68;;;3.40;;
79570;SDS011;69034;49.444;7.758;2023-08-24T13:14:14;7.55;;;3.40;;
79570;SDS011;69034;49.444;7.758;2023-08-24T13:18:14;7.28;;;2.83;;
79570;SDS011;69034;49.444;7.758;2023-08-24T13:22:16;4.85;;;2.83;;
79570;SDS011;69034;49.444;7.758;2023-08-24T13:26:20;6.90;;;3.63;;
79570;SDS011;69034;49.444;7.758;2023-08-24T13:30:23;4.00;;;2.42;;
79570;SDS011;69034;49.444;7.758;2023-08-24T13:34:25;4.05;;;2.38;;
79570;SDS011;69034;49.444;7.758;2023-08-24T13:38:25;8.07;;;2.95;;
79570;SDS011;69034;49.444;7.758;2023-08-24T13:42:26;5.20;;;2.60;;
79570;SDS011;69034;49.444;7.758;2023-08-24T13:46:27;7.22;;;2.58;;
79570;SDS011;69034;49.444;7.758;2023-08-24T13:50:27;6.82;;;2.45;;
79570;SDS011;69034;49.444;7.758;2023-08-24T13:54:28;4.70;;;2.85;;
79570;SDS011;69034;49.444;7.758;2023-08-24T13:58:30;5.15;;;2.63;;
79570;SDS011;69034;49.444;7.758;2023-08-24T14:02:31;8.30;;;2.53;;
79570;SDS011;69034;49.444;7.758;2023-08-24T14:06:32;6.05;;;2.53;;
79570;SDS011;69034;49.444;7.758;2023-08-24T14:10:34;4.65;;;2.58;;
79570;SDS011;69034;49.444;7.758;2023-08-24T14:19:19;8.07;;;3.42;;
79570;SDS011;69034;49.444;7.758;2023-08-24T14:23:19;5.55;;;3.15;;
79570;SDS011;69034;49.444;7.758;2023-08-24T14:27:20;5.25;;;2.72;;
79570;SDS011;69034;49.444;7.758;2023-08-24T14:31:21;7.47;;;2.60;;
79570;SDS011;69034;49.444;7.758;2023-08-24T14:35:22;10.05;;;3.00;;
79570;SDS011;69034;49.444;7.758;2023-08-24T14:39:22;4.45;;;2.40;;
79570;SDS011;69034;49.444;7.758;2023-08-24T14:43:23;5.97;;;3.83;;
79570;SDS011;69034;49.444;7.758;2023-08-24T14:47:25;5.30;;;2.83;;
79570;SDS011;69034;49.444;7.758;2023-08-24T14:51:26;7.90;;;3.22;;
79570;SDS011;69034;49.444;7.758;2023-08-24T14:55:26;4.93;;;2.53;;
79570;SDS011;69034;49.444;7.758;2023-08-24T14:59:27;6.60;;;3.25;;
79570;SDS011;69034;49.444;7.758;2023-08-24T15:03:27;4.63;;;2.83;;
79570;SDS011;69034;49.444;7.758;2023-08-24T15:07:28;6.15;;;3.17;;
79570;SDS011;69034;49.444;7.758;2023-08-24T15:11:30;8.00;;;3.80;;
79570;SDS011;69034;49.444;7.758;2023-08-24T15:15:31;6.60;;;3.25;;
79570;SDS011;69034;49.444;7.758;2023-08-24T15:19:35;7.88;;;3.60;;
79570;SDS011;69034;49.444;7.758;2023-08-24T15:23:37;7.35;;;4.03;;
79570;SDS011;69034;49.444;7.758;2023-08-24T15:27:37;10.73;;;3.70;;
79570;SDS011;69034;49.444;7.758;2023-08-24T15:31:38;5.70;;;3.30;;
79570;SDS011;69034;49.444;7.758;2023-08-24T15:35:40;8.98;;;3.70;;
79570;SDS011;69034;49.444;7.758;2023-08-24T15:39:41;5.63;;;3.17;;
79570;SDS011;69034;49.444;7.758;2023-08-24T15:43:42;6.97;;;3.67;;
79570;SDS011;69034;49.444;7.758;2023-08-24T15:47:42;6.05;;;3.22;;
79570;SDS011;69034;49.444;7.758;2023-08-24T15:51:43;5.63;;;3.20;;
79570;SDS011;69034;49.444;7.758;2023-08-24T15:55:44;6.60;;;3.25;;
79570;SDS011;69034;49.444;7.758;2023-08-24T15:59:44;6.43;;;2.40;;
79570;SDS011;69034;49.444;7.758;2023-08-24T16:03:45;7.47;;;2.90;;
79570;SDS011;69034;49.444;7.758;2023-08-24T16:07:45;5.57;;;2.30;;
79570;SDS011;69034;49.444;7.758;2023-08-24T16:11:47;7.75;;;3.60;;
79570;SDS011;69034;49.444;7.758;2023-08-24T16:15:48;6.95;;;3.05;;
79570;SDS011;69034;49.444;7.758;2023-08-24T16:19:48;7.00;;;3.35;;
79570;SDS011;69034;49.444;7.758;2023-08-24T16:23:49;6.70;;;3.42;;
79570;SDS011;69034;49.444;7.758;2023-08-24T16:27:51;8.15;;;3.00;;
79570;SDS011;69034;49.444;7.758;2023-08-24T16:31:55;8.65;;;2.80;;
79570;SDS011;69034;49.444;7.758;2023-08-24T16:35:58;7.10;;;3.03;;
79570;SDS011;69034;49.444;7.758;2023-08-24T16:39:58;9.07;;;3.03;;
79570;SDS011;69034;49.444;7.758;2023-08-24T16:44:02;5.60;;;3.13;;
79570;SDS011;69034;49.444;7.758;2023-08-24T16:48:03;9.93;;;3.72;;
79570;SDS011;69034;49.444;7.758;2023-08-24T16:52:04;8.10;;;5.13;;
79570;SDS011;69034;49.444;7.758;2023-08-24T16:56:08;9.27;;;4.20;;
79570;SDS011;69034;49.444;7.758;2023-08-24T17:00:12;10.15;;;4.10;;
79570;SDS011;69034;49.444;7.758;2023-08-24T17:04:13;8.10;;;3.63;;
79570;SDS011;69034;49.444;7.758;2023-08-24T17:08:14;6.78;;;3.53;;
79570;SDS011;69034;49.444;7.758;2023-08-24T17:12:15;6.57;;;3.58;;
79570;SDS011;69034;49.444;7.758;2023-08-24T17:16:16;7.47;;;3.78;;
79570;SDS011;69034;49.444;7.758;2023-08-24T17:20:17;7.97;;;3.38;;
79570;SDS011;69034;49.444;7.758;2023-08-24T17:24:19;8.82;;;3.67;;
79570;SDS011;69034;49.444;7.758;2023-08-24T17:28:20;5.78;;;3.33;;
79570;SDS011;69034;49.444;7.758;2023-08-24T17:32:21;5.68;;;3.25;;
79570;SDS011;69034;49.444;7.758;2023-08-24T17:36:26;5.90;;;3.35;;
79570;SDS011;69034;49.444;7.758;2023-08-24T17:40:29;6.80;;;3.17;;
79570;SDS011;69034;49.444;7.758;2023-08-24T17:44:30;7.40;;;3.42;;
79570;SDS011;69034;49.444;7.758;2023-08-24T17:48:31;6.82;;;3.17;;
79570;SDS011;69034;49.444;7.758;2023-08-24T17:52:32;8.40;;;3.33;;
79570;SDS011;69034;49.444;7.758;2023-08-24T17:56:33;5.93;;;3.30;;
79570;SDS011;69034;49.444;7.758;2023-08-24T18:00:34;6.05;;;3.17;;
79570;SDS011;69034;49.444;7.758;2023-08-24T18:04:35;6.75;;;3.60;;
79570;SDS011;69034;49.444;7.758;2023-08-24T18:08:35;6.68;;;3.25;;
79570;SDS011;69034;49.444;7.758;2023-08-24T18:12:36;6.35;;;3.38;;
79570;SDS011;69034;49.444;7.758;2023-08-24T18:16:37;10.18;;;3.13;;
79570;SDS011;69034;49.444;7.758;2023-08-24T18:20:38;5.68;;;2.72;;
79570;SDS011;69034;49.444;7.758;2023-08-24T18:24:38;5.38;;;2.88;;
79570;SDS011;69034;49.444;7.758;2023-08-24T18:28:40;5.85;;;3.30;;
79570;SDS011;69034;49.444;7.758;2023-08-24T18:32:41;5.25;;;3.00;;
79570;SDS011;69034;49.444;7.758;2023-08-24T18:36:42;5.47;;;2.92;;
79570;SDS011;69034;49.444;7.758;2023-08-24T18:40:42;6.80;;;2.80;;
79570;SDS011;69034;49.444;7.758;2023-08-24T18:44:46;7.78;;;3.30;;
79570;SDS011;69034;49.444;7.758;2023-08-24T18:48:46;6.13;;;2.75;;
79570;SDS011;69034;49.444;7.758;2023-08-24T18:52:48;10.35;;;4.60;;
79570;SDS011;69034;49.444;7.758;2023-08-24T18:56:49;7.10;;;3.85;;
79570;SDS011;69034;49.444;7.758;2023-08-24T19:00:52;7.30;;;3.30;;
79570;SDS011;69034;49.444;7.758;2023-08-24T19:04:54;6.95;;;3.60;;
79570;SDS011;69034;49.444;7.758;2023-08-24T19:08:54;5.15;;;3.33;;
79570;SDS011;69034;49.444;7.758;2023-08-24T19:12:55;8.18;;;5.15;;
79570;SDS011;69034;49.444;7.758;2023-08-24T19:16:57;10.13;;;4.57;;
79570;SDS011;69034;49.444;7.758;2023-08-24T19:20:58;6.28;;;3.20;;
79570;SDS011;69034;49.444;7.758;2023-08-24T19:24:59;6.85;;;3.38;;
79570;SDS011;69034;49.444;7.758;2023-08-24T19:29:03;6.47;;;3.28;;
79570;SDS011;69034;49.444;7.758;2023-08-24T19:33:06;8.60;;;3.13;;
79570;SDS011;69034;49.444;7.758;2023-08-24T19:37:07;7.35;;;3.40;;
79570;SDS011;69034;49.444;7.758;2023-08-24T19:41:07;7.47;;;3.40;;
79570;SDS011;69034;49.444;7.758;2023-08-24T19:45:08;5.72;;;3.08;;
79570;SDS011;69034;49.444;7.758;2023-08-24T19:49:09;7.03;;;3.40;;
79570;SDS011;69034;49.444;7.758;2023-08-24T19:53:10;7.28;;;3.30;;
79570;SDS011;69034;49.444;7.758;2023-08-24T19:57:12;5.75;;;3.08;;
79570;SDS011;69034;49.444;7.758;2023-08-24T20:01:14;5.45;;;2.70;;
79570;SDS011;69034;49.444;7.758;2023-08-24T20:05:17;4.85;;;3.05;;
79570;SDS011;69034;49.444;7.758;2023-08-24T20:09:17;4.72;;;2.58;;
79570;SDS011;69034;49.444;7.758;2023-08-24T20:13:18;5.82;;;2.83;;
79570;SDS011;69034;49.444;7.758;2023-08-24T20:17:20;7.07;;;3.20;;
79570;SDS011;69034;49.444;7.758;2023-08-24T20:21:21;7.68;;;3.30;;
79570;SDS011;69034;49.444;7.758;2023-08-24T20:25:25;6.50;;;2.80;;
79570;SDS011;69034;49.444;7.758;2023-08-24T20:29:26;5.80;;;2.78;;
79570;SDS011;69034;49.444;7.758;2023-08-24T20:33:27;6.70;;;2.80;;
79570;SDS011;69034;49.444;7.758;2023-08-24T20:37:28;5.60;;;2.85;;
79570;SDS011;69034;49.444;7.758;2023-08-24T20:41:31;4.35;;;2.30;;
79570;SDS011;69034;49.444;7.758;2023-08-24T20:45:31;8.45;;;3.25;;
79570;SDS011;69034;49.444;7.758;2023-08-24T20:49:32;5.07;;;2.83;;
79570;SDS011;69034;49.444;7.758;2023-08-24T20:53:32;4.97;;;2.80;;
79570;SDS011;69034;49.444;7.758;2023-08-24T20:57:34;4.85;;;2.75;;
79570;SDS011;69034;49.444;7.758;2023-08-24T21:01:34;6.15;;;3.17;;
79570;SDS011;69034;49.444;7.758;2023-08-24T21:05:35;8.90;;;2.92;;
79570;SDS011;69034;49.444;7.758;2023-08-24T21:09:35;7.63;;;3.72;;
79570;SDS011;69034;49.444;7.758;2023-08-24T21:13:36;6.70;;;3.15;;
79570;SDS011;69034;49.444;7.758;2023-08-24T21:17:37;5.50;;;2.97;;
79570;SDS011;69034;49.444;7.758;2023-08-24T21:21:40;6.60;;;3.33;;
79570;SDS011;69034;49.444;7.758;2023-08-24T21:25:41;5.45;;;3.00;;
79570;SDS011;69034;49.444;7.758;2023-08-24T21:29:42;4.78;;;2.70;;
79570;SDS011;69034;49.444;7.758;2023-08-24T21:33:44;7.47;;;3.70;;
79570;SDS011;69034;49.444;7.758;2023-08-24T21:37:44;5.78;;;3.13;;
79570;SDS011;69034;49.444;7.758;2023-08-24T21:41:46;7.30;;;3.92;;
79570;SDS011;69034;49.444;7.758;2023-08-24T21:46:21;4.45;;;2.50;;
79570;SDS011;69034;49.444;7.758;2023-08-24T21:50:15;6.93;;;3.05;;
79570;SDS011;69034;49.444;7.758;2023-08-24T21:54:15;6.32;;;3.00;;
79570;SDS011;69034;49.444;7.758;2023-08-24T21:58:16;8.68;;;3.15;;
79570;SDS011;69034;49.444;7.758;2023-08-24T22:02:17;5.65;;;3.13;;
79570;SDS011;69034;49.444;7.758;2023-08-24T22:06:17;6.68;;;3.40;;
79570;SDS011;69034;49.444;7.758;2023-08-24T22:10:18;6.32;;;3.40;;
79570;SDS011;69034;49.444;7.758;2023-08-24T22:14:18;6.35;;;3.13;;
79570;SDS011;69034;49.444;7.758;2023-08-24T22:18:20;5.80;;;3.00;;
79570;SDS011;69034;49.444;7.758;2023-08-24T22:22:21;5.50;;;3.03;;
79570;SDS011;69034;49.444;7.758;2023-08-24T22:26:22;5.80;;;3.35;;
79570;SDS011;69034;49.444;7.758;2023-08-24T22:30:22;4.90;;;2.80;;
79570;SDS011;69034;49.444;7.758;2023-08-24T22:34:23;5.93;;;3.17;;
79570;SDS011;69034;49.444;7.758;2023-08-24T22:38:24;5.95;;;3.30;;
79570;SDS011;69034;49.444;7.758;2023-08-24T22:42:24;5.10;;;3.35;;
79570;SDS011;69034;49.444;7.758;2023-08-24T22:46:25;4.60;;;2.90;;
79570;SDS011;69034;49.444;7.758;2023-08-24T22:50:27;5.65;;;2.70;;
79570;SDS011;69034;49.444;7.758;2023-08-24T22:54:27;5.50;;;3.05;;
79570;SDS011;69034;49.444;7.758;2023-08-24T22:58:29;6.35;;;3.17;;
79570;SDS011;69034;49.444;7.758;2023-08-24T23:02:30;7.07;;;3.00;;
79570;SDS011;69034;49.444;7.758;2023-08-24T23:06:44;5.43;;;3.25;;
79570;SDS011;69034;49.444;7.758;2023-08-24T23:10:45;6.60;;;3.80;;
79570;SDS011;69034;49.444;7.758;2023-08-24T23:14:46;7.90;;;2.97;;
79570;SDS011;69034;49.444;7.758;2023-08-24T23:18:48;7.40;;;3.22;;
79570;SDS011;69034;49.444;7.758;2023-08-24T23:22:50;5.72;;;3.47;;
79570;SDS011;69034;49.444;7.758;2023-08-24T23:26:51;8.68;;;3.35;;
79570;SDS011;69034;49.444;7.758;2023-08-24T23:30:51;5.78;;;3.00;;
79570;SDS011;69034;49.444;7.758;2023-08-24T23:34:52;5.25;;;3.13;;
79570;SDS011;69034;49.444;7.758;2023-08-24T23:38:53;7.68;;;2.90;;
79570;SDS011;69034;49.444;7.758;2023-08-24T23:42:53;5.90;;;3.30;;
79570;SDS011;69034;49.444;7.758;2023-08-24T23:46:54;5.35;;;3.17;;
79570;SDS011;69034;49.444;7.758;2023-08-24T23:50:54;5.32;;;3.45;;
79570;SDS011;69034;49.444;7.758;2023-08-24T23:54:56;6.18;;;3.08;;
79570;SDS011;69034;49.444;7.758;2023-08-24T23:58:57;7.65;;;3.40;;
